Time;durP1;ratioP1;P1;durP2;ratioP2;P2;SDS_P1;SDS_P2;PMS_P1;PMS_P2;Temp;Humidity;BMP_temperature;BMP_pressure;BME280_temperature;BME280_humidity;BME280_pressure;Samples;Min_cycle;Max_cycle;Signal;HPM_P1;HPM_P2
2022/09/24 00:01:38;;;;;;;16.48;11.20;;;;;;;13.17;89.68;101222.19;4913990;29;20532;-70
2022/09/24 00:04:10;;;;;;;17.50;11.75;;;;;;;13.17;89.48;101222.19;4912798;29;20524;-71
2022/09/24 00:06:45;;;;;;;14.88;11.07;;;;;;;13.15;89.78;101221.38;4909487;29;20049;-71
2022/09/24 00:09:18;;;;;;;17.27;11.95;;;;;;;13.14;89.84;101217.84;4902808;29;20044;-70
2022/09/24 00:11:45;;;;;;;17.48;12.63;;;;;;;13.13;90.10;101216.13;4911174;29;20124;-70
2022/09/24 00:14:13;;;;;;;15.45;11.75;;;;;;;13.12;90.23;101210.88;4910986;29;20539;-71
2022/09/24 00:16:42;;;;;;;14.60;12.07;;;;;;;13.11;90.22;101210.03;4911202;29;20544;-70
2022/09/24 00:19:12;;;;;;;15.68;11.65;;;;;;;13.10;90.26;101204.78;4911106;29;20056;-70
2022/09/24 00:21:41;;;;;;;17.90;12.65;;;;;;;13.10;90.27;101207.41;4912775;29;20061;-70
2022/09/24 00:26:48;;;;;;;17.67;12.73;;;;;;;13.07;90.34;101205.75;4912548;29;20052;-70
2022/09/24 00:27:05;;;;;;;20.77;12.00;;;;;;;13.08;90.41;101210.13;4913286;29;20569;-70
2022/09/24 00:29:34;;;;;;;18.95;12.60;;;;;;;13.05;90.50;101213.75;4911609;29;20037;-70
2022/09/24 00:32:04;;;;;;;19.63;13.38;;;;;;;13.05;90.61;101210.22;4912832;29;20544;-71
2022/09/24 00:34:31;;;;;;;20.48;14.30;;;;;;;13.02;90.55;101207.72;4913282;29;20413;-71
2022/09/24 00:36:59;;;;;;;19.42;14.30;;;;;;;13.02;90.67;101210.38;4915994;29;20113;-71
2022/09/24 00:39:27;;;;;;;19.73;14.10;;;;;;;13.01;90.83;101208.63;4915439;29;20044;-70
2022/09/24 00:41:54;;;;;;;19.10;13.80;;;;;;;12.97;90.96;101207.84;4915652;29;20045;-71
2022/09/24 00:44:44;;;;;;;18.13;13.73;;;;;;;12.98;91.01;101214.88;4913971;29;20056;-71
2022/09/24 00:47:40;;;;;;;20.40;14.20;;;;;;;12.98;91.08;101206.06;4915673;29;20049;-71
2022/09/24 00:50:30;;;;;;;19.95;13.55;;;;;;;12.96;91.08;101206.13;4914026;29;20051;-71
2022/09/24 00:53:08;;;;;;;18.95;13.15;;;;;;;12.97;91.21;101201.69;4909776;29;20931;-71
2022/09/24 00:55:39;;;;;;;17.85;12.82;;;;;;;12.96;91.39;101203.50;4913972;29;20052;-71
2022/09/24 00:58:08;;;;;;;21.95;13.57;;;;;;;12.95;91.43;101192.94;4915079;29;20048;-71
2022/09/24 01:00:41;;;;;;;20.40;13.85;;;;;;;12.96;91.31;101192.91;4915238;29;20513;-71
2022/09/24 01:03:15;;;;;;;17.10;12.70;;;;;;;12.94;91.52;101191.22;4915245;29;20124;-71
2022/09/24 01:05:43;;;;;;;18.27;12.95;;;;;;;12.91;91.44;101183.41;4914552;29;20040;-70
2022/09/24 01:08:13;;;;;;;19.15;13.68;;;;;;;12.89;91.46;101179.03;4914889;29;20049;-70
2022/09/24 01:11:33;;;;;;;18.05;12.45;;;;;;;12.89;91.45;101188.72;4914085;29;20045;-70
2022/09/24 01:14:31;;;;;;;20.30;13.02;;;;;;;12.86;91.57;101173.81;4907924;29;20104;-71
2022/09/24 01:17:29;;;;;;;19.17;13.93;;;;;;;12.82;91.37;101174.00;4907338;29;20127;-70
2022/09/24 01:20:14;;;;;;;19.88;14.18;;;;;;;12.80;91.72;101168.75;4905682;29;20544;-70
2022/09/24 01:23:22;;;;;;;19.00;14.15;;;;;;;12.80;91.57;101162.59;4906570;29;20087;-70
2022/09/24 01:26:27;;;;;;;18.52;13.88;;;;;;;12.78;91.67;101165.28;4905043;29;20057;-70
2022/09/24 01:29:27;;;;;;;19.90;14.82;;;;;;;12.77;91.90;101150.34;4907637;29;20044;-70
2022/09/24 01:32:05;;;;;;;18.85;14.23;;;;;;;12.77;92.08;101155.63;4914257;29;20051;-70
2022/09/24 01:34:58;;;;;;;19.58;14.73;;;;;;;12.78;92.32;101146.78;4913982;29;20064;-71
2022/09/24 01:37:32;;;;;;;19.35;14.88;;;;;;;12.78;92.04;101151.19;4915243;29;20049;-70
2022/09/24 01:40:03;;;;;;;20.77;14.95;;;;;;;12.77;92.35;101152.97;4910490;29;20055;-70
2022/09/24 01:42:32;;;;;;;18.33;14.25;;;;;;;12.77;92.28;101147.69;4905071;29;20053;-70
2022/09/24 01:45:01;;;;;;;24.38;15.80;;;;;;;12.77;92.31;101145.03;4912350;29;20159;-70
2022/09/24 01:47:37;;;;;;;23.73;15.52;;;;;;;12.79;92.39;101139.69;4911065;29;20508;-70
2022/09/24 01:50:18;;;;;;;19.67;14.85;;;;;;;12.78;92.40;101133.56;4914210;29;20060;-70
2022/09/24 01:53:07;;;;;;;20.35;15.02;;;;;;;12.78;92.43;101135.31;4914781;29;20043;-70
2022/09/24 01:55:48;;;;;;;19.23;14.52;;;;;;;12.79;92.48;101123.81;4910730;29;20037;-70
2022/09/24 01:58:24;;;;;;;20.52;14.52;;;;;;;12.78;92.55;101125.63;4911497;29;20071;-70
2022/09/24 02:01:04;;;;;;;22.35;15.25;;;;;;;12.79;92.39;101126.47;4912815;29;20056;-70
2022/09/24 02:03:42;;;;;;;22.83;15.05;;;;;;;12.77;92.34;101123.88;4914660;29;20386;-69
2022/09/24 02:06:19;;;;;;;21.13;14.85;;;;;;;12.74;92.47;101124.88;4909273;29;20048;-69
2022/09/24 02:08:47;;;;;;;21.48;15.48;;;;;;;12.73;92.47;101123.13;4913284;29;20457;-70
2022/09/24 02:11:23;;;;;;;20.00;13.93;;;;;;;12.73;92.40;101115.19;4908566;29;20044;-70
2022/09/24 02:14:02;;;;;;;22.38;14.07;;;;;;;12.77;92.58;101121.25;4914503;29;20106;-70
2022/09/24 02:16:36;;;;;;;18.92;14.85;;;;;;;12.77;92.58;101113.31;4912287;29;20044;-70
2022/09/24 02:19:12;;;;;;;21.52;15.70;;;;;;;12.80;92.63;101125.56;4913450;29;20048;-70
2022/09/24 02:21:42;;;;;;;20.90;15.13;;;;;;;12.81;92.61;101116.69;4914089;29;20061;-70
2022/09/24 02:24:18;;;;;;;20.40;14.07;;;;;;;12.81;92.50;101122.88;4909446;29;20059;-70
2022/09/24 02:26:46;;;;;;;21.80;14.73;;;;;;;12.81;92.57;101111.41;4914123;29;20528;-71
2022/09/24 02:29:13;;;;;;;22.73;15.35;;;;;;;12.79;92.59;101113.22;4915001;29;20111;-70
2022/09/24 02:31:48;;;;;;;25.42;16.67;;;;;;;12.81;92.48;101108.75;4913519;29;20052;-70
2022/09/24 02:34:24;;;;;;;21.75;15.55;;;;;;;12.79;92.62;101105.31;4914116;29;20049;-70
2022/09/24 02:36:59;;;;;;;23.88;16.23;;;;;;;12.82;92.48;101107.84;4910339;29;20079;-70
2022/09/24 02:39:26;;;;;;;26.83;17.85;;;;;;;12.79;92.49;101102.66;4910888;29;20045;-70
2022/09/24 02:41:54;;;;;;;28.27;18.70;;;;;;;12.79;92.68;101100.00;4912943;29;20072;-70
2022/09/24 02:44:23;;;;;;;34.83;19.10;;;;;;;12.81;92.57;101100.81;4912849;29;20044;-70
2022/09/24 02:46:50;;;;;;;25.65;17.45;;;;;;;12.81;92.54;101101.72;4907296;29;20056;-70
2022/09/24 02:49:17;;;;;;;23.25;14.75;;;;;;;12.81;92.67;101107.00;4914473;29;20088;-70
2022/09/24 02:51:44;;;;;;;21.73;14.77;;;;;;;12.80;92.63;101107.03;4911820;29;20036;-71
2022/09/24 02:54:11;;;;;;;23.27;16.83;;;;;;;12.81;92.56;101098.19;4913660;29;20487;-70
2022/09/24 02:56:39;;;;;;;21.80;16.02;;;;;;;12.79;92.71;101100.88;4911757;29;20052;-70
2022/09/24 02:59:07;;;;;;;20.42;14.75;;;;;;;12.80;92.74;101099.97;4913506;29;20916;-70
2022/09/24 03:01:45;;;;;;;20.10;14.55;;;;;;;12.82;92.58;101099.91;4911223;29;20425;-70
2022/09/24 03:04:15;;;;;;;20.95;14.82;;;;;;;12.78;92.81;101101.81;4908550;29;20579;-71
2022/09/24 03:06:42;;;;;;;20.95;15.25;;;;;;;12.78;92.75;101099.16;4911789;29;20045;-69
2022/09/24 03:09:12;;;;;;;22.48;14.93;;;;;;;12.79;92.60;101102.66;4913488;29;20055;-69
2022/09/24 03:11:40;;;;;;;19.20;12.95;;;;;;;12.78;92.63;101096.50;4912325;29;20040;-69
2022/09/24 03:14:07;;;;;;;24.08;14.48;;;;;;;12.77;92.55;101094.78;4908836;29;20078;-69
2022/09/24 03:16:34;;;;;;;19.90;12.55;;;;;;;12.77;92.65;101086.84;4902938;29;20532;-69
2022/09/24 03:19:01;;;;;;;21.83;13.52;;;;;;;12.76;92.71;101087.75;4901622;29;20425;-69
2022/09/24 03:21:29;;;;;;;23.48;14.60;;;;;;;12.76;92.69;101086.91;4912768;29;20056;-68
2022/09/24 03:23:56;;;;;;;19.95;15.02;;;;;;;12.77;92.64;101083.34;4912803;29;20056;-69
2022/09/24 03:26:23;;;;;;;19.75;14.90;;;;;;;12.76;92.53;101094.84;4913155;29;20045;-69
2022/09/24 03:28:51;;;;;;;21.85;14.85;;;;;;;12.76;92.75;101081.63;4912319;29;20032;-69
2022/09/24 03:31:18;;;;;;;20.33;13.80;;;;;;;12.73;92.65;101083.44;4912215;29;20133;-69
2022/09/24 03:33:48;;;;;;;21.20;14.77;;;;;;;12.74;92.78;101084.31;4910399;29;20124;-70
2022/09/24 03:36:21;;;;;;;22.27;14.50;;;;;;;12.74;92.74;101085.19;4914018;29;20540;-70
2022/09/24 03:38:54;;;;;;;20.65;14.60;;;;;;;12.73;92.77;101079.94;4912606;29;20040;-70
2022/09/24 03:41:27;;;;;;;23.98;15.38;;;;;;;12.73;92.84;101086.09;4912675;29;20041;-70
2022/09/24 03:43:55;;;;;;;24.65;16.23;;;;;;;12.70;92.94;101085.34;4912892;29;20036;-70
2022/09/24 03:46:27;;;;;;;22.27;15.07;;;;;;;12.70;92.80;101090.63;4908199;29;20049;-70
2022/09/24 03:48:59;;;;;;;28.90;17.05;;;;;;;12.68;92.93;101077.44;4911502;29;20048;-70
2022/09/24 03:51:26;;;;;;;23.98;16.17;;;;;;;12.67;92.99;101078.34;4912400;29;20055;-70
2022/09/24 03:53:53;;;;;;;26.90;18.17;;;;;;;12.68;93.13;101084.53;4911058;29;20056;-70
2022/09/24 03:56:21;;;;;;;25.65;17.95;;;;;;;12.67;93.01;101080.16;4906986;29;20039;-70
2022/09/24 03:58:48;;;;;;;26.77;18.10;;;;;;;12.67;93.18;101074.88;4912391;29;20044;-70
2022/09/24 04:01:19;;;;;;;27.77;17.15;;;;;;;12.65;93.22;101072.28;4912274;29;20508;-71
2022/09/24 04:03:49;;;;;;;26.27;18.02;;;;;;;12.66;93.45;101068.72;4913144;29;20055;-70
2022/09/24 04:06:17;;;;;;;25.52;18.17;;;;;;;12.66;93.21;101074.00;4912874;29;20101;-70
2022/09/24 04:08:52;;;;;;;30.40;18.67;;;;;;;12.67;93.37;101075.72;4913548;29;20068;-70
2022/09/24 04:11:19;;;;;;;27.17;17.65;;;;;;;12.67;93.47;101069.56;4915210;29;20044;-70
2022/09/24 04:13:46;;;;;;;30.38;19.05;;;;;;;12.67;93.56;101066.94;4915808;29;20052;-70
2022/09/24 04:16:13;;;;;;;29.25;19.23;;;;;;;12.67;93.47;101066.94;4912799;29;20048;-70
2022/09/24 04:18:40;;;;;;;31.23;19.58;;;;;;;12.67;93.34;101074.88;4907284;29;20084;-70
2022/09/24 04:21:08;;;;;;;29.20;19.25;;;;;;;12.66;93.68;101071.38;4915067;29;20428;-69
2022/09/24 04:23:35;;;;;;;27.10;18.63;;;;;;;12.67;93.61;101065.13;4913822;29;20048;-70
2022/09/24 04:26:02;;;;;;;30.70;19.25;;;;;;;12.68;93.56;101066.00;4915917;29;20108;-70
2022/09/24 04:28:29;;;;;;;29.90;20.25;;;;;;;12.67;93.51;101061.63;4915386;29;20048;-70
2022/09/24 04:30:57;;;;;;;28.20;19.17;;;;;;;12.67;93.81;101057.19;4907055;29;20041;-69
2022/09/24 04:33:25;;;;;;;29.92;18.38;;;;;;;12.67;93.75;101046.63;4914789;29;20513;-69
2022/09/24 04:35:52;;;;;;;30.27;19.35;;;;;;;12.66;93.55;101046.69;4913075;29;20049;-69
2022/09/24 04:38:20;;;;;;;29.02;19.75;;;;;;;12.67;93.92;101043.97;4930265;29;20514;-69
2022/09/24 04:40:48;;;;;;;28.05;19.45;;;;;;;12.67;93.87;101048.41;4911990;29;20045;-69
2022/09/24 04:43:18;;;;;;;29.77;19.77;;;;;;;12.68;93.73;101044.84;4903584;29;20501;-69
2022/09/24 04:45:46;;;;;;;30.00;19.90;;;;;;;12.70;93.83;101053.59;4915953;29;20076;-70
2022/09/24 04:48:14;;;;;;;27.60;19.60;;;;;;;12.69;93.84;101050.06;4914826;29;20157;-68
2022/09/24 04:50:41;;;;;;;29.90;19.73;;;;;;;12.69;93.88;101050.06;4920750;29;20048;-68
2022/09/24 04:53:14;;;;;;;30.63;19.92;;;;;;;12.69;93.77;101049.22;4914968;28;20051;-68
2022/09/24 04:55:43;;;;;;;30.25;18.90;;;;;;;12.69;93.80;101046.59;4911515;29;20048;-68
2022/09/24 04:58:18;;;;;;;29.45;19.83;;;;;;;12.70;93.83;101041.22;4927720;29;20060;-68
2022/09/24 05:00:46;;;;;;;28.17;18.88;;;;;;;12.70;93.84;101048.31;4908790;29;20476;-68
2022/09/24 05:03:15;;;;;;;30.20;19.02;;;;;;;12.71;93.90;101056.19;4905610;29;20049;-68
2022/09/24 05:05:46;;;;;;;31.92;20.58;;;;;;;12.71;93.90;101053.53;4914200;29;20048;-68
2022/09/24 05:08:13;;;;;;;29.38;19.23;;;;;;;12.72;93.95;101051.75;4915248;29;20140;-69
2022/09/24 05:10:40;;;;;;;29.45;19.05;;;;;;;12.72;93.88;101057.91;4917144;29;20049;-68
2022/09/24 05:13:08;;;;;;;30.40;20.20;;;;;;;12.72;93.92;101049.97;4914514;29;20078;-68
2022/09/24 05:15:35;;;;;;;30.50;19.67;;;;;;;12.73;93.98;101053.47;4916210;29;20479;-69
2022/09/24 05:18:08;;;;;;;33.50;20.37;;;;;;;12.76;94.03;101065.75;4914312;29;20074;-69
2022/09/24 05:20:35;;;;;;;27.77;18.45;;;;;;;12.76;94.00;101057.81;4915444;29;20264;-69
2022/09/24 05:23:04;;;;;;;27.27;19.38;;;;;;;12.77;93.85;101063.03;4913998;29;20582;-69
2022/09/24 05:25:31;;;;;;;29.48;19.15;;;;;;;12.79;93.91;101062.97;4911557;29;20048;-70
2022/09/24 05:28:00;;;;;;;27.52;18.35;;;;;;;12.81;93.96;101071.72;4914305;29;20048;-68
2022/09/24 05:30:36;;;;;;;27.15;18.48;;;;;;;12.81;93.96;101067.31;4914855;29;20096;-68
2022/09/24 05:33:08;;;;;;;24.60;17.40;;;;;;;12.83;93.88;101062.81;4914713;29;20044;-68
2022/09/24 05:35:35;;;;;;;26.10;16.95;;;;;;;12.86;93.96;101065.34;4928045;29;20509;-68
2022/09/24 05:38:02;;;;;;;24.48;16.05;;;;;;;12.87;93.90;101068.88;4912177;29;20187;-68
2022/09/24 05:40:48;;;;;;;26.40;16.88;;;;;;;12.88;93.88;101068.81;4914199;29;20124;-69
2022/09/24 05:43:18;;;;;;;23.88;16.38;;;;;;;12.89;93.66;101072.31;4914497;29;20116;-70
2022/09/24 05:45:49;;;;;;;26.85;17.08;;;;;;;12.88;93.75;101067.94;4914922;29;20053;-69
2022/09/24 05:48:16;;;;;;;24.63;16.40;;;;;;;12.87;93.50;101068.88;4913709;29;20041;-69
2022/09/24 05:50:43;;;;;;;24.40;16.05;;;;;;;12.87;93.55;101069.72;4913125;29;20472;-69
2022/09/24 05:53:10;;;;;;;27.45;16.95;;;;;;;12.90;93.55;101074.03;4913719;29;20508;-68
2022/09/24 05:55:38;;;;;;;24.75;16.40;;;;;;;12.91;93.13;101072.28;4915127;29;20155;-69
2022/09/24 05:58:12;;;;;;;23.30;15.57;;;;;;;12.89;93.22;101075.84;4913771;29;20055;-69
2022/09/24 06:00:39;;;;;;;21.48;15.40;;;;;;;12.89;93.41;101070.53;4908713;29;20047;-70
2022/09/24 06:03:13;;;;;;;21.58;15.82;;;;;;;12.90;93.43;101071.38;4905269;29;20044;-70
2022/09/24 06:05:47;;;;;;;25.10;16.83;;;;;;;12.93;93.31;101076.56;4905534;29;20041;-69
2022/09/24 06:08:17;;;;;;;22.85;16.17;;;;;;;12.95;93.49;101074.75;4905648;29;20067;-69
2022/09/24 06:10:46;;;;;;;21.50;16.48;;;;;;;12.98;93.28;101071.13;4898645;29;20109;-70
2022/09/24 06:13:18;;;;;;;20.20;14.82;;;;;;;12.99;93.17;101076.34;4912540;29;20049;-67
2022/09/24 06:15:45;;;;;;;20.80;15.30;;;;;;;13.00;93.05;101075.41;4910102;29;20047;-67
2022/09/24 06:18:14;;;;;;;21.10;15.52;;;;;;;13.01;93.07;101073.66;4910546;29;20211;-68
2022/09/24 06:20:47;;;;;;;20.20;14.98;;;;;;;13.02;93.00;101070.94;4902743;29;20088;-68
2022/09/24 06:23:14;;;;;;;25.08;15.20;;;;;;;13.04;92.98;101074.41;4912134;29;20083;-69
2022/09/24 06:25:42;;;;;;;21.33;15.07;;;;;;;13.07;92.73;101078.72;4910185;29;20520;-68
2022/09/24 06:28:09;;;;;;;21.33;14.40;;;;;;;13.09;92.73;101082.16;4909294;29;20779;-69
2022/09/24 06:30:38;;;;;;;21.08;14.68;;;;;;;13.13;92.95;101082.91;4899242;29;20168;-68
2022/09/24 06:33:13;;;;;;;19.98;14.32;;;;;;;13.17;92.89;101084.53;4897032;29;20044;-70
2022/09/24 06:35:43;;;;;;;22.55;15.30;;;;;;;13.20;93.11;101081.75;4911346;29;20047;-67
2022/09/24 06:38:14;;;;;;;19.50;14.15;;;;;;;13.23;92.94;101091.41;4903435;29;20056;-68
2022/09/24 06:40:47;;;;;;;21.75;14.18;;;;;;;13.25;92.86;101092.19;4914734;29;20049;-66
2022/09/24 06:43:16;;;;;;;22.00;14.40;;;;;;;13.29;92.86;101096.44;4914953;29;20040;-66
2022/09/24 06:45:44;;;;;;;21.90;15.05;;;;;;;13.32;92.90;101093.69;4913145;29;20425;-66
2022/09/24 06:48:13;;;;;;;21.73;15.00;;;;;;;13.38;92.88;101098.75;4913275;29;20080;-66
2022/09/24 06:50:44;;;;;;;21.63;14.93;;;;;;;13.41;92.66;101093.38;4912997;29;20037;-68
2022/09/24 06:53:12;;;;;;;21.55;14.68;;;;;;;13.46;92.89;101103.78;4914565;29;20063;-68
2022/09/24 06:55:39;;;;;;;22.20;15.90;;;;;;;13.49;92.66;101101.88;4913075;29;20594;-69
2022/09/24 06:58:16;;;;;;;22.35;14.82;;;;;;;13.54;92.65;101096.41;4913093;29;20097;-68
2022/09/24 07:00:51;;;;;;;21.05;15.55;;;;;;;13.58;92.24;101102.44;4911972;29;20051;-67
2022/09/24 07:03:18;;;;;;;19.27;13.45;;;;;;;13.60;91.91;101106.75;4904697;29;20213;-67
2022/09/24 07:05:45;;;;;;;20.30;15.20;;;;;;;13.62;91.89;101102.25;4914036;29;20044;-65
2022/09/24 07:08:13;;;;;;;21.13;14.50;;;;;;;13.65;92.04;101095.97;4911421;29;20071;-65
2022/09/24 07:10:47;;;;;;;19.50;14.50;;;;;;;13.68;92.02;101101.16;4914307;29;20041;-69
2022/09/24 07:13:15;;;;;;;19.15;14.40;;;;;;;13.71;91.89;101108.13;4905146;29;20052;-66
2022/09/24 07:15:43;;;;;;;18.27;13.35;;;;;;;13.72;91.78;101107.19;4910285;29;20045;-65
2022/09/24 07:18:12;;;;;;;19.77;13.70;;;;;;;13.74;91.63;101114.16;4911812;29;20496;-66
2022/09/24 07:20:39;;;;;;;20.48;14.27;;;;;;;13.74;91.08;101118.59;4913027;29;20561;-67
2022/09/24 07:23:10;;;;;;;21.45;14.88;;;;;;;13.73;91.09;101114.22;4913639;29;20060;-66
2022/09/24 07:25:38;;;;;;;20.38;14.43;;;;;;;13.72;90.41;101125.75;4911730;29;20503;-67
2022/09/24 07:28:10;;;;;;;20.75;14.23;;;;;;;13.70;90.77;101133.75;4911170;29;20967;-66
2022/09/24 07:30:38;;;;;;;22.60;15.15;;;;;;;13.72;91.15;101120.44;4913903;29;20487;-66
2022/09/24 07:33:06;;;;;;;19.65;13.88;;;;;;;13.75;90.90;101123.00;4914024;29;20143;-66
2022/09/24 07:35:37;;;;;;;23.85;15.52;;;;;;;13.75;91.10;101125.63;4902728;29;20038;-68
2022/09/24 07:38:11;;;;;;;19.90;14.30;;;;;;;13.73;90.59;101120.41;4911739;29;20536;-68
2022/09/24 07:40:38;;;;;;;20.27;13.77;;;;;;;13.71;90.73;101127.53;4914631;29;20108;-68
2022/09/24 07:43:11;;;;;;;19.85;14.57;;;;;;;13.69;91.14;101132.03;4913442;29;20307;-68
2022/09/24 07:45:41;;;;;;;22.98;15.68;;;;;;;13.68;91.21;101132.94;4914312;29;20048;-68
2022/09/24 07:48:09;;;;;;;27.45;14.95;;;;;;;13.67;91.32;101133.88;4910708;29;20060;-68
2022/09/24 07:50:39;;;;;;;18.80;13.40;;;;;;;13.66;91.40;101125.06;4913923;29;20047;-68
2022/09/24 07:53:11;;;;;;;20.60;14.80;;;;;;;13.68;91.46;101132.94;4913655;29;20040;-68
2022/09/24 07:55:39;;;;;;;22.02;14.27;;;;;;;13.68;91.58;101140.06;4912908;29;20128;-68
2022/09/24 07:58:12;;;;;;;24.85;16.02;;;;;;;13.66;91.74;101138.31;4906545;29;20064;-68
2022/09/24 08:00:40;;;;;;;24.60;15.38;;;;;;;13.65;91.81;101135.72;4906048;29;20076;-68
2022/09/24 08:03:08;;;;;;;25.00;15.57;;;;;;;13.63;91.84;101138.44;4912231;29;20077;-70
2022/09/24 08:05:45;;;;;;;22.67;14.90;;;;;;;13.63;91.97;101137.59;4913910;28;20056;-70
2022/09/24 08:08:12;;;;;;;23.15;15.60;;;;;;;13.62;91.96;101141.16;4912698;29;20037;-70
2022/09/24 08:10:41;;;;;;;23.30;16.00;;;;;;;13.62;91.96;101144.66;4910279;29;20105;-70
2022/09/24 08:13:09;;;;;;;22.98;15.20;;;;;;;13.62;91.96;101149.09;4908640;29;20540;-70
2022/09/24 08:15:36;;;;;;;24.77;15.35;;;;;;;13.61;91.93;101147.38;4912792;29;20049;-70
2022/09/24 08:18:04;;;;;;;23.08;15.75;;;;;;;13.59;91.91;101147.41;4910205;29;20094;-69
2022/09/24 08:20:32;;;;;;;22.92;15.27;;;;;;;13.59;92.04;101150.06;4913882;29;20040;-69
2022/09/24 08:23:02;;;;;;;25.95;15.77;;;;;;;13.61;92.14;101160.63;4903420;29;20060;-70
2022/09/24 08:25:30;;;;;;;22.00;15.38;;;;;;;13.57;92.25;101157.22;4912742;29;20048;-69
2022/09/24 08:28:03;;;;;;;20.58;15.15;;;;;;;13.57;92.13;101154.56;4911722;29;20036;-70
2022/09/24 08:30:31;;;;;;;20.73;15.43;;;;;;;13.58;92.20;101160.72;4913155;29;20535;-70
2022/09/24 08:32:58;;;;;;;22.50;15.35;;;;;;;13.60;92.24;101164.19;4911566;29;20093;-70
2022/09/24 08:35:25;;;;;;;22.23;15.00;;;;;;;13.60;92.33;101159.72;4912618;29;20050;-70
2022/09/24 08:37:53;;;;;;;22.60;15.43;;;;;;;13.62;92.63;101160.53;4908371;29;20248;-71
2022/09/24 08:40:31;;;;;;;22.40;14.95;;;;;;;13.66;92.48;101153.34;4913465;29;20048;-69
2022/09/24 08:43:27;;;;;;;21.33;14.52;;;;;;;13.72;92.45;101162.84;4900616;29;20131;-70
2022/09/24 08:49:04;;;;;;;20.25;14.57;;;;;;;13.73;92.78;101170.75;4909266;29;20097;-70
2022/09/24 08:51:50;;;;;;;20.65;14.23;;;;;;;13.76;92.69;101167.09;4912293;29;20048;-71
2022/09/24 08:54:23;;;;;;;20.40;14.55;;;;;;;13.76;92.72;101172.41;4909225;29;20036;-71
2022/09/24 08:56:54;;;;;;;21.27;14.90;;;;;;;13.80;92.52;101174.00;4927552;29;20084;-71
2022/09/24 08:59:32;;;;;;;22.23;14.57;;;;;;;13.82;92.48;101173.03;4914848;29;20048;-70
2022/09/24 09:02:37;;;;;;;22.55;15.32;;;;;;;13.85;92.56;101179.13;4910611;29;20048;-70
2022/09/24 09:05:26;;;;;;;20.42;14.85;;;;;;;13.82;92.62;101181.00;4917847;29;20045;-70
2022/09/24 09:08:24;;;;;;;20.48;14.32;;;;;;;13.83;92.74;101184.50;4907239;29;20121;-70
2022/09/24 09:11:16;;;;;;;19.23;13.63;;;;;;;13.86;92.84;101184.38;4912838;29;20870;-71
2022/09/24 09:14:03;;;;;;;22.23;15.25;;;;;;;13.91;92.89;101185.06;4914765;29;20044;-70
2022/09/24 09:16:45;;;;;;;20.15;14.82;;;;;;;13.96;92.65;101176.91;4915832;29;20108;-70
2022/09/24 09:19:16;;;;;;;20.70;14.80;;;;;;;14.01;92.77;101180.28;4907199;29;20052;-71
2022/09/24 09:21:52;;;;;;;21.35;13.80;;;;;;;14.07;92.73;101185.31;4913933;29;20592;-71
2022/09/24 09:24:51;;;;;;;16.95;12.77;;;;;;;14.13;92.66;101178.91;4913399;29;20039;-71
2022/09/24 09:27:19;;;;;;;19.15;13.48;;;;;;;14.20;92.77;101182.19;4904971;29;20061;-71
2022/09/24 09:29:56;;;;;;;18.95;13.02;;;;;;;14.26;92.56;101187.22;4912037;29;20045;-70
2022/09/24 09:33:03;;;;;;;18.20;13.73;;;;;;;14.29;92.45;101187.97;4910127;29;20049;-70
2022/09/24 09:35:53;;;;;;;18.10;13.20;;;;;;;14.34;92.62;101187.81;4915800;29;20561;-71
2022/09/24 09:38:32;;;;;;;17.92;13.10;;;;;;;14.37;92.62;101186.81;4915208;29;20492;-69
2022/09/24 09:41:30;;;;;;;17.33;13.32;;;;;;;14.41;92.26;101183.09;4913174;29;20116;-69
2022/09/24 09:44:26;;;;;;;19.50;13.23;;;;;;;14.44;92.02;101189.16;4915868;29;20044;-69
2022/09/24 09:47:19;;;;;;;19.73;13.40;;;;;;;14.48;91.88;101189.88;4910019;29;20088;-70
2022/09/24 09:49:51;;;;;;;16.58;12.18;;;;;;;14.56;91.73;101189.56;4912395;29;20144;-69
2022/09/24 09:52:26;;;;;;;17.88;12.27;;;;;;;14.60;91.55;101193.81;4913718;29;20040;-69
2022/09/24 09:54:53;;;;;;;18.38;12.48;;;;;;;14.64;91.13;101194.53;4914180;29;20052;-69
2022/09/24 09:57:24;;;;;;;16.67;12.55;;;;;;;14.68;91.01;101191.72;4914439;29;20047;-68
2022/09/24 09:59:54;;;;;;;18.80;13.23;;;;;;;14.73;90.33;101194.19;4915437;29;20474;-69
2022/09/24 10:02:26;;;;;;;17.00;11.88;;;;;;;14.74;90.35;101194.16;4910910;29;20519;-69
2022/09/24 10:04:57;;;;;;;16.75;12.30;;;;;;;14.79;89.56;101191.28;4912610;29;20567;-69
2022/09/24 10:07:24;;;;;;;19.98;12.10;;;;;;;14.82;89.70;101192.94;4912394;29;20531;-69
2022/09/24 10:10:22;;;;;;;18.58;11.65;;;;;;;14.90;89.43;101193.47;4903269;29;20056;-69
2022/09/24 10:13:11;;;;;;;17.25;12.23;;;;;;;14.95;89.15;101194.16;4907569;29;20049;-70
2022/09/24 10:15:59;;;;;;;18.00;12.23;;;;;;;14.96;88.69;101205.63;4913032;29;20556;-69
2022/09/24 10:18:40;;;;;;;17.13;11.95;;;;;;;14.98;88.36;101195.81;4914572;29;20072;-69
2022/09/24 10:21:22;;;;;;;18.42;12.13;;;;;;;15.00;88.13;101193.97;4912886;29;20074;-69
2022/09/24 10:24:00;;;;;;;14.70;11.57;;;;;;;15.02;88.45;101192.06;4912739;29;20056;-70
2022/09/24 10:26:40;;;;;;;17.40;12.85;;;;;;;15.09;87.76;101184.72;4914649;29;20045;-70
2022/09/24 10:32:28;;;;;;;16.05;11.13;;;;;;;15.19;88.02;101184.25;4914544;29;20045;-70
2022/09/24 10:35:28;;;;;;;15.02;11.23;;;;;;;15.24;88.05;101176.09;4912328;29;20048;-70
2022/09/24 10:37:59;;;;;;;14.73;11.35;;;;;;;15.32;87.37;101184.56;4912862;29;20077;-69
2022/09/24 10:40:38;;;;;;;16.45;12.05;;;;;;;15.37;87.67;101182.56;4912975;29;20055;-69
2022/09/24 10:43:14;;;;;;;18.00;10.95;;;;;;;15.41;86.91;101180.66;4912315;29;20129;-69
2022/09/24 10:46:23;;;;;;;19.25;12.07;;;;;;;15.46;87.02;101180.44;4914160;29;20100;-69
2022/09/24 10:49:23;;;;;;;17.00;12.07;;;;;;;15.55;87.00;101187.09;4914293;29;20503;-69
2022/09/24 10:52:14;;;;;;;16.67;11.30;;;;;;;15.60;85.82;101183.31;4899433;29;20048;-70
2022/09/24 10:55:05;;;;;;;15.00;11.57;;;;;;;15.62;86.45;101185.88;4904610;29;20040;-69
2022/09/24 10:57:58;;;;;;;17.08;11.48;;;;;;;15.70;86.25;101186.41;4910210;29;20037;-69
2022/09/24 11:00:45;;;;;;;15.88;11.20;;;;;;;15.71;85.44;101189.91;4911226;29;20053;-69
2022/09/24 11:03:36;;;;;;;16.95;11.35;;;;;;;15.71;85.20;101192.56;4915172;29;20041;-69
2022/09/24 11:07:14;;;;;;;13.85;10.50;;;;;;;15.67;85.76;101197.19;4913955;29;20049;-69
2022/09/24 11:10:04;;;;;;;14.95;10.43;;;;;;;15.61;85.79;101195.66;4833014;29;20502;-69
2022/09/24 11:12:53;;;;;;;16.02;11.35;;;;;;;15.61;85.29;101190.34;4911283;29;20068;-69
2022/09/24 11:15:57;;;;;;;17.33;11.25;;;;;;;15.57;85.19;101194.06;4914991;29;20059;-70
2022/09/24 11:19:01;;;;;;;15.98;11.88;;;;;;;15.62;85.48;101194.72;4913793;29;20528;-69
2022/09/24 11:22:07;;;;;;;15.75;10.75;;;;;;;15.72;85.24;101196.97;4907739;29;20053;-70
2022/09/24 11:24:53;;;;;;;13.50;10.50;;;;;;;15.70;83.38;101194.38;4895785;29;20049;-70
2022/09/24 11:27:48;;;;;;;12.70;9.82;;;;;;;15.66;83.02;101192.78;4913022;29;20052;-70
2022/09/24 11:30:21;;;;;;;;;;;;;;;15.58;83.15;101200.25;4907118;29;20044;-70
2022/09/24 11:32:55;;;;;;;14.63;10.13;;;;;;;15.55;83.18;101201.28;4914533;29;20410;-70
2022/09/24 11:36:09;;;;;;;14.60;11.20;;;;;;;15.57;84.28;101199.38;4907170;29;20485;-70
2022/09/24 11:39:05;;;;;;;14.50;11.13;;;;;;;15.61;84.96;101208.94;4899326;29;20138;-70
2022/09/24 11:41:44;;;;;;;16.40;11.10;;;;;;;15.66;84.51;101204.31;4905096;29;20139;-70
2022/09/24 11:44:29;;;;;;;14.20;10.85;;;;;;;15.68;84.23;101206.88;4899340;29;20041;-70
2022/09/24 11:47:31;;;;;;;16.88;11.48;;;;;;;15.67;83.75;101206.00;4909733;29;20080;-70
2022/09/24 11:50:39;;;;;;;15.57;11.70;;;;;;;15.66;84.32;101198.97;4921067;29;20052;-69
2022/09/24 11:53:39;;;;;;;13.70;10.77;;;;;;;15.67;83.93;101200.69;4900329;29;20581;-70